createdAt,value
2018-06-03T00:02:14.774Z,18.36
2018-06-03T00:04:43.244Z,18.37
2018-06-03T00:07:12.345Z,18.39
2018-06-03T00:09:40.728Z,18.38
2018-06-03T00:12:09.001Z,18.34
2018-06-03T00:14:37.375Z,18.40
2018-06-03T00:17:05.709Z,18.38
2018-06-03T00:19:34.030Z,18.42
2018-06-03T00:22:02.389Z,18.45
2018-06-03T00:24:30.825Z,18.41
2018-06-03T00:26:59.198Z,18.34
2018-06-03T00:29:27.607Z,18.31
2018-06-03T00:31:55.954Z,18.32
2018-06-03T00:34:24.360Z,18.34
2018-06-03T00:36:53.587Z,18.33
2018-06-03T00:39:21.944Z,18.28
2018-06-03T00:41:50.290Z,18.31
2018-06-03T00:44:18.715Z,18.29
2018-06-03T00:46:47.090Z,18.26
2018-06-03T00:49:15.427Z,18.25
2018-06-03T00:51:44.875Z,18.27
2018-06-03T00:54:13.207Z,18.34
2018-06-03T00:56:54.721Z,18.36
2018-06-03T00:59:23.100Z,18.37
2018-06-03T01:01:51.537Z,18.38
2018-06-03T01:04:20.529Z,18.38
2018-06-03T01:06:48.909Z,18.37
2018-06-03T01:09:17.312Z,18.32
2018-06-03T01:11:46.209Z,18.32
2018-06-03T01:14:14.509Z,18.33
2018-06-03T01:16:42.842Z,18.31
2018-06-03T01:19:11.368Z,18.31
2018-06-03T01:21:39.732Z,18.32
2018-06-03T01:24:08.152Z,18.39
2018-06-03T01:26:37.349Z,18.35
2018-06-03T01:29:06.594Z,18.39
2018-06-03T01:31:34.904Z,18.36
2018-06-03T01:34:03.589Z,18.46
2018-06-03T01:36:31.997Z,18.49
2018-06-03T01:39:00.339Z,18.50
2018-06-03T01:41:29.051Z,18.52
2018-06-03T01:43:57.438Z,18.48
2018-06-03T01:46:25.801Z,18.41
2018-06-03T01:48:54.983Z,18.40
2018-06-03T01:51:23.333Z,18.34
2018-06-03T01:53:51.709Z,18.28
2018-06-03T01:56:20.203Z,18.24
2018-06-03T01:58:48.836Z,18.26
2018-06-03T02:01:17.316Z,18.24
2018-06-03T02:03:45.681Z,18.18
2018-06-03T02:06:14.834Z,18.19
2018-06-03T02:08:43.162Z,18.21
2018-06-03T02:11:11.986Z,18.24
2018-06-03T02:13:40.313Z,18.25
2018-06-03T02:16:08.620Z,18.25
2018-06-03T02:18:37.591Z,18.15
2018-06-03T02:21:05.887Z,18.10
2018-06-03T02:23:34.214Z,17.99
2018-06-03T02:26:02.562Z,17.93
2018-06-03T02:28:30.956Z,17.90
2018-06-03T02:30:59.333Z,17.90
2018-06-03T02:33:27.752Z,17.91
2018-06-03T02:35:56.138Z,17.94
2018-06-03T02:38:24.542Z,17.93
2018-06-03T02:40:53.048Z,17.97
2018-06-03T02:43:21.500Z,17.96
2018-06-03T02:45:49.871Z,17.98
2018-06-03T02:48:18.260Z,17.99
2018-06-03T02:50:46.661Z,18.02
2018-06-03T02:53:14.993Z,18.08
2018-06-03T02:55:43.338Z,18.10
2018-06-03T02:58:11.802Z,18.16
2018-06-03T03:00:40.128Z,18.19
2018-06-03T03:03:09.404Z,18.15
2018-06-03T03:05:37.721Z,18.15
2018-06-03T03:08:06.057Z,18.17
2018-06-03T03:10:35.246Z,18.23
2018-06-03T03:13:03.574Z,18.18
2018-06-03T03:15:31.937Z,18.07
2018-06-03T03:18:00.302Z,18.00
2018-06-03T03:20:28.652Z,18.03
2018-06-03T03:22:57.059Z,17.99
2018-06-03T03:25:26.262Z,17.96
2018-06-03T03:27:54.587Z,17.97
2018-06-03T03:30:22.974Z,18.02
2018-06-03T03:32:52.152Z,18.01
2018-06-03T03:35:20.562Z,17.98
2018-06-03T03:37:48.927Z,18.01
2018-06-03T03:40:17.689Z,18.07
2018-06-03T03:42:46.059Z,18.10
2018-06-03T03:45:14.447Z,18.04
2018-06-03T03:47:42.857Z,18.11
2018-06-03T03:50:11.566Z,18.09
2018-06-03T03:52:39.873Z,18.08
2018-06-03T03:55:09.785Z,18.08
2018-06-03T03:57:38.109Z,18.05
2018-06-03T04:00:06.433Z,17.95
2018-06-03T04:02:35.547Z,17.96
2018-06-03T04:05:04.214Z,18.01
2018-06-03T04:07:32.532Z,18.01
2018-06-03T04:10:00.869Z,18.05
2018-06-03T04:12:29.243Z,18.05
2018-06-03T04:14:57.579Z,18.05
2018-06-03T04:17:25.955Z,18.12
2018-06-03T04:19:54.286Z,18.14
2018-06-03T04:22:22.638Z,18.10
2018-06-03T04:24:51.249Z,18.10
2018-06-03T04:27:19.605Z,18.12
2018-06-03T04:29:48.145Z,18.14
2018-06-03T04:32:16.588Z,18.22
2018-06-03T04:34:44.917Z,18.27
2018-06-03T04:37:13.218Z,18.25
2018-06-03T04:39:41.704Z,18.30
2018-06-03T04:42:10.039Z,18.35
2018-06-03T04:44:38.350Z,18.41
2018-06-03T04:47:07.532Z,18.49
2018-06-03T04:49:35.875Z,18.42
2018-06-03T04:52:04.186Z,18.38
2018-06-03T04:54:32.602Z,18.34
2018-06-03T04:57:00.921Z,18.33
2018-06-03T04:59:29.296Z,18.30
2018-06-03T05:01:57.660Z,18.26
2018-06-03T05:04:25.965Z,18.20
2018-06-03T05:06:54.320Z,18.16
2018-06-03T05:09:22.792Z,18.07
2018-06-03T05:11:51.138Z,18.14
2018-06-03T05:14:19.503Z,18.08
2018-06-03T05:16:48.268Z,18.12
2018-06-03T05:19:17.672Z,18.16
2018-06-03T05:21:46.021Z,18.17
2018-06-03T05:24:14.505Z,18.14
2018-06-03T05:26:42.836Z,18.20
2018-06-03T05:29:11.154Z,18.23
2018-06-03T05:31:39.557Z,18.26
2018-06-03T05:34:07.876Z,18.31
2018-06-03T05:36:36.245Z,18.38
2018-06-03T05:39:04.593Z,18.44
2018-06-03T05:41:32.964Z,18.57
2018-06-03T05:44:01.284Z,18.56
2018-06-03T05:46:29.697Z,18.67
2018-06-03T05:48:58.006Z,18.76
2018-06-03T05:51:26.364Z,18.74
2018-06-03T05:53:55.078Z,18.79
2018-06-03T05:56:23.425Z,18.82
2018-06-03T05:58:51.803Z,18.86
2018-06-03T06:01:20.525Z,18.83
2018-06-03T06:03:48.864Z,18.88
2018-06-03T06:06:17.217Z,18.89
2018-06-03T06:08:47.399Z,19.01
2018-06-03T06:11:15.713Z,19.05
2018-06-03T06:13:44.034Z,19.10
2018-06-03T06:16:12.417Z,19.10
2018-06-03T06:18:40.804Z,19.11
2018-06-03T06:21:09.118Z,19.20
2018-06-03T06:23:38.546Z,19.27
2018-06-03T06:26:06.870Z,19.37
2018-06-03T06:28:35.200Z,19.41
2018-06-03T06:31:04.235Z,19.41
2018-06-03T06:33:32.561Z,19.41
2018-06-03T06:36:00.895Z,19.58
2018-06-03T06:38:29.269Z,19.73
2018-06-03T06:40:57.657Z,19.73
2018-06-03T06:43:26.078Z,19.74
2018-06-03T06:45:54.532Z,19.84
2018-06-03T06:48:22.872Z,19.95
2018-06-03T06:50:51.333Z,20.02
2018-06-03T06:53:20.104Z,20.06
2018-06-03T06:55:48.561Z,20.07
2018-06-03T06:58:17.028Z,20.08
2018-06-03T07:00:45.384Z,20.14
2018-06-03T07:03:13.697Z,20.24
2018-06-03T07:05:42.067Z,20.23
2018-06-03T07:08:10.433Z,20.27
2018-06-03T07:10:38.749Z,20.42
2018-06-03T07:13:07.087Z,20.58
2018-06-03T07:15:35.438Z,20.66
2018-06-03T07:18:03.750Z,20.83
2018-06-03T07:20:32.093Z,20.94
2018-06-03T07:23:01.265Z,21.01
2018-06-03T07:25:29.621Z,21.10
2018-06-03T07:27:57.988Z,21.10
2018-06-03T07:30:27.405Z,21.07
2018-06-03T07:32:55.769Z,21.00
2018-06-03T07:35:24.131Z,20.95
2018-06-03T07:37:52.539Z,21.01
2018-06-03T07:40:20.861Z,21.12
2018-06-03T07:42:49.246Z,21.15
2018-06-03T07:45:17.664Z,21.01
2018-06-03T07:47:45.995Z,21.08
2018-06-03T07:50:14.359Z,21.14
2018-06-03T07:52:43.494Z,21.15
2018-06-03T07:55:11.827Z,21.21
2018-06-03T07:57:40.144Z,21.38
2018-06-03T08:00:08.605Z,21.28
2018-06-03T08:02:36.929Z,21.17
2018-06-03T08:05:05.278Z,21.13
2018-06-03T08:07:34.466Z,21.02
2018-06-03T08:10:02.817Z,20.98
2018-06-03T08:12:31.298Z,20.90
2018-06-03T08:14:59.886Z,20.87
2018-06-03T08:17:28.573Z,20.98
2018-06-03T08:19:57.157Z,21.09
2018-06-03T08:22:26.593Z,21.25
2018-06-03T08:24:54.965Z,21.29
2018-06-03T08:27:23.411Z,21.29
2018-06-03T08:29:51.923Z,21.28
2018-06-03T08:32:20.327Z,21.30
2018-06-03T08:34:48.786Z,21.14
2018-06-03T08:37:17.116Z,20.95
2018-06-03T08:39:45.445Z,20.99
2018-06-03T08:42:13.777Z,20.97
2018-06-03T08:44:42.121Z,20.83
2018-06-03T08:47:10.443Z,20.78
2018-06-03T08:49:38.781Z,20.77
2018-06-03T08:52:07.769Z,20.67
2018-06-03T08:54:36.077Z,20.60
2018-06-03T08:57:04.395Z,20.52
2018-06-03T08:59:32.729Z,20.52
2018-06-03T09:02:01.050Z,20.58
2018-06-03T09:04:29.394Z,20.61
2018-06-03T09:07:30.536Z,20.33
2018-06-03T09:10:00.160Z,20.29
2018-06-03T09:12:29.602Z,20.32
2018-06-03T09:14:59.477Z,20.42
2018-06-03T09:17:28.857Z,20.48
2018-06-03T09:19:58.262Z,20.60
2018-06-03T09:22:27.603Z,20.71
2018-06-03T09:24:56.957Z,20.80
2018-06-03T09:27:26.613Z,20.80
2018-06-03T09:29:56.666Z,20.65
2018-06-03T09:32:26.309Z,20.80
2018-06-03T09:34:55.762Z,20.91
2018-06-03T09:37:25.681Z,20.67
2018-06-03T09:39:55.237Z,20.69
2018-06-03T09:42:24.747Z,20.59
2018-06-03T09:44:54.339Z,20.57
2018-06-03T09:47:23.784Z,20.52
2018-06-03T09:49:53.399Z,20.60
2018-06-03T09:52:23.689Z,20.63
2018-06-03T09:54:53.188Z,20.82
2018-06-03T09:57:22.628Z,20.94
2018-06-03T09:59:53.570Z,21.00
2018-06-03T10:02:23.132Z,20.94
2018-06-03T10:04:52.714Z,20.93
2018-06-03T10:07:22.265Z,21.04
2018-06-03T10:09:51.753Z,21.04
2018-06-03T10:12:21.268Z,20.99
2018-06-03T10:14:50.828Z,21.04
2018-06-03T10:17:20.506Z,21.06
2018-06-03T10:19:50.028Z,20.96
2018-06-03T10:22:19.721Z,21.15
2018-06-03T10:24:49.186Z,21.32
2018-06-03T10:27:19.044Z,21.42
2018-06-03T10:29:55.697Z,21.33
2018-06-03T10:32:25.253Z,21.40
2018-06-03T10:34:54.871Z,21.35
2018-06-03T10:37:25.166Z,21.44
2018-06-03T10:39:55.103Z,21.55
2018-06-03T10:42:24.608Z,21.57
2018-06-03T10:44:54.874Z,21.65
2018-06-03T10:47:24.305Z,21.58
2018-06-03T10:49:53.712Z,21.49
2018-06-03T10:52:23.675Z,21.49
2018-06-03T10:54:53.589Z,21.59
2018-06-03T10:57:26.396Z,21.53
2018-06-03T10:59:55.885Z,21.36
2018-06-03T11:02:25.850Z,21.21
2018-06-03T11:04:55.566Z,21.14
2018-06-03T11:07:25.250Z,21.15
2018-06-03T11:09:54.769Z,21.05
2018-06-03T11:12:24.379Z,20.97
2018-06-03T11:14:53.777Z,21.00
2018-06-03T11:17:26.047Z,21.12
2018-06-03T11:19:55.959Z,21.26
2018-06-03T11:22:25.630Z,21.28
2018-06-03T11:24:55.420Z,21.23
2018-06-03T11:27:25.063Z,21.17
2018-06-03T11:29:54.702Z,21.15
2018-06-03T11:32:25.027Z,21.29
2018-06-03T11:34:54.634Z,21.42
2018-06-03T11:37:24.454Z,21.55
2018-06-03T11:39:54.964Z,21.84
2018-06-03T11:42:24.678Z,21.99
2018-06-03T11:44:54.370Z,22.07
2018-06-03T11:47:24.402Z,22.05
2018-06-03T11:49:53.892Z,22.00
2018-06-03T11:52:23.297Z,21.89
2018-06-03T11:54:52.997Z,21.73
2018-06-03T11:57:23.638Z,21.68
2018-06-03T11:59:53.267Z,21.72
2018-06-03T12:02:23.033Z,21.76
2018-06-03T12:04:52.755Z,21.67
2018-06-03T12:07:22.352Z,21.60
2018-06-03T12:09:52.202Z,21.52
2018-06-03T12:12:21.689Z,21.36
2018-06-03T12:14:51.237Z,21.29
2018-06-03T12:17:20.802Z,21.22
2018-06-03T12:19:50.286Z,21.16
2018-06-03T12:22:19.800Z,21.09
2018-06-03T12:24:50.179Z,21.19
2018-06-03T12:27:19.997Z,21.23
2018-06-03T12:29:50.069Z,21.11
2018-06-03T12:32:19.981Z,21.13
2018-06-03T12:34:49.656Z,21.08
2018-06-03T12:37:19.401Z,20.99
2018-06-03T12:39:49.637Z,20.88
2018-06-03T12:42:19.939Z,20.91
2018-06-03T12:44:49.951Z,20.99
2018-06-03T12:47:24.730Z,20.84
2018-06-03T12:49:56.230Z,20.66
2018-06-03T12:52:26.120Z,20.76
2018-06-03T12:54:55.841Z,20.95
2018-06-03T12:57:25.486Z,21.07
2018-06-03T12:59:56.136Z,21.04
2018-06-03T13:02:25.861Z,21.23
2018-06-03T13:04:55.213Z,21.38
2018-06-03T13:07:24.843Z,21.43
2018-06-03T13:09:54.932Z,21.38
2018-06-03T13:12:24.552Z,21.30
2018-06-03T13:14:54.172Z,21.29
2018-06-03T13:17:23.732Z,21.17
2018-06-03T13:19:53.201Z,21.17
2018-06-03T13:22:23.631Z,21.29
2018-06-03T13:24:53.419Z,21.44
2018-06-03T13:27:22.924Z,21.48
2018-06-03T13:29:52.695Z,21.49
2018-06-03T13:32:22.114Z,21.55
2018-06-03T13:34:51.545Z,21.63
2018-06-03T13:37:21.209Z,21.79
2018-06-03T13:39:50.615Z,21.87
2018-06-03T13:42:20.090Z,21.83
2018-06-03T13:44:49.519Z,21.77
2018-06-03T13:47:18.992Z,21.80
2018-06-03T13:49:48.567Z,21.75
2018-06-03T13:52:18.954Z,21.94
2018-06-03T13:54:48.262Z,22.09
2018-06-03T13:57:17.553Z,22.31
2018-06-03T13:59:46.853Z,22.39
2018-06-03T14:02:16.148Z,22.41
2018-06-03T14:04:45.372Z,22.40
2018-06-03T14:07:14.780Z,22.99
2018-06-03T14:09:44.063Z,23.52
2018-06-03T14:12:13.345Z,24.32
2018-06-03T14:14:42.624Z,24.66
2018-06-03T14:17:11.836Z,25.12
2018-06-03T14:19:41.053Z,25.13
2018-06-03T14:22:10.299Z,24.98
2018-06-03T14:24:39.689Z,24.72
2018-06-03T14:27:09.005Z,24.47
2018-06-03T14:29:38.311Z,24.48
2018-06-03T14:32:07.540Z,24.50
2018-06-03T14:34:36.891Z,24.19
2018-06-03T14:37:06.417Z,23.93
2018-06-03T14:39:35.669Z,23.94
2018-06-03T14:42:05.125Z,23.75
2018-06-03T14:44:34.419Z,24.09
2018-06-03T14:47:03.653Z,24.31
2018-06-03T14:49:33.020Z,24.61
2018-06-03T14:52:03.204Z,25.16
2018-06-03T14:54:32.418Z,25.13
2018-06-03T14:57:01.850Z,24.85
2018-06-03T14:59:31.117Z,24.88
2018-06-03T15:02:00.434Z,25.30
2018-06-03T15:04:29.724Z,25.56
2018-06-03T15:06:59.658Z,25.54
2018-06-03T15:09:29.032Z,25.45
2018-06-03T15:11:58.408Z,25.16
2018-06-03T15:14:27.954Z,24.95
2018-06-03T15:16:57.477Z,25.02
2018-06-03T15:19:26.965Z,24.99
2018-06-03T15:21:56.451Z,24.97
2018-06-03T15:24:25.924Z,24.86
2018-06-03T15:26:55.436Z,24.64
2018-06-03T15:29:25.131Z,24.64
2018-06-03T15:31:54.633Z,24.53
2018-06-03T15:34:24.509Z,24.35
2018-06-03T15:36:54.342Z,24.30
2018-06-03T15:39:24.182Z,24.29
2018-06-03T15:41:54.054Z,24.34
2018-06-03T15:44:24.041Z,24.29
2018-06-03T15:46:53.807Z,24.28
2018-06-03T15:49:23.430Z,24.30
2018-06-03T15:51:52.955Z,24.30
2018-06-03T15:54:22.557Z,24.18
2018-06-03T15:56:52.428Z,24.16
2018-06-03T15:59:22.135Z,24.04
2018-06-03T16:01:51.857Z,23.99
2018-06-03T16:04:21.464Z,23.95
2018-06-03T16:06:51.615Z,23.87
2018-06-03T16:09:21.394Z,23.86
2018-06-03T16:11:51.042Z,23.72
2018-06-03T16:14:21.908Z,23.73
2018-06-03T16:16:51.774Z,23.64
2018-06-03T16:19:21.873Z,23.60
2018-06-03T16:21:51.549Z,23.76
2018-06-03T16:24:21.347Z,23.91
2018-06-03T16:26:50.824Z,23.83
2018-06-03T16:29:20.793Z,23.82
2018-06-03T16:31:50.327Z,23.88
2018-06-03T16:34:19.769Z,23.94
2018-06-03T16:36:49.295Z,24.02
2018-06-03T16:39:18.769Z,24.37
2018-06-03T16:41:50.791Z,24.77
2018-06-03T16:44:20.327Z,25.27
2018-06-03T16:46:50.002Z,25.65
2018-06-03T16:49:19.485Z,26.05
2018-06-03T16:51:48.991Z,26.59
2018-06-03T16:54:18.562Z,26.98
2018-06-03T16:56:49.070Z,26.95
2018-06-03T16:59:18.607Z,26.61
2018-06-03T17:01:48.116Z,25.83
2018-06-03T17:04:17.499Z,25.41
2018-06-03T17:06:47.478Z,24.62
2018-06-03T17:09:17.080Z,24.49
2018-06-03T17:11:46.950Z,24.43
2018-06-03T17:14:20.905Z,24.44
2018-06-03T17:16:50.536Z,24.72
2018-06-03T17:19:24.241Z,25.06
2018-06-03T17:21:53.844Z,24.82
2018-06-03T17:24:23.412Z,24.43
2018-06-03T17:26:52.890Z,24.14
2018-06-03T17:29:23.203Z,23.96
2018-06-03T17:31:52.767Z,23.95
2018-06-03T17:34:22.425Z,23.73
2018-06-03T17:36:52.598Z,23.72
2018-06-03T17:39:22.038Z,23.63
2018-06-03T17:41:51.757Z,23.49
2018-06-03T17:44:21.730Z,23.47
2018-06-03T17:46:51.904Z,23.58
2018-06-03T17:49:22.326Z,23.79
2018-06-03T17:51:52.305Z,24.09
2018-06-03T17:54:22.127Z,24.07
2018-06-03T17:56:51.817Z,24.15
2018-06-03T17:59:21.592Z,24.22
2018-06-03T18:01:51.814Z,24.25
2018-06-03T18:04:21.511Z,24.15
2018-06-03T18:06:51.161Z,24.02
2018-06-03T18:09:22.145Z,24.10
2018-06-03T18:11:51.730Z,24.11
2018-06-03T18:14:21.408Z,23.97
2018-06-03T18:16:52.236Z,23.90
2018-06-03T18:19:21.862Z,23.78
2018-06-03T18:21:51.628Z,23.71
2018-06-03T18:24:21.641Z,23.79
2018-06-03T18:26:51.215Z,23.77
2018-06-03T18:29:20.813Z,23.52
2018-06-03T18:31:50.413Z,23.29
2018-06-03T18:34:20.108Z,22.98
2018-06-03T18:36:50.024Z,22.53
2018-06-03T18:39:20.169Z,22.29
2018-06-03T18:41:49.809Z,22.01
2018-06-03T18:44:20.281Z,21.78
2018-06-03T18:46:49.816Z,21.63
2018-06-03T18:49:19.327Z,21.45
2018-06-03T18:51:48.844Z,21.34
2018-06-03T18:54:19.250Z,21.29
2018-06-03T18:56:48.713Z,21.15
2018-06-03T18:59:18.202Z,21.09
2018-06-03T19:01:47.724Z,20.92
2018-06-03T19:04:17.066Z,20.75
2018-06-03T19:06:46.675Z,20.66
2018-06-03T19:09:16.337Z,20.54
2018-06-03T19:11:45.772Z,20.44
2018-06-03T19:14:15.141Z,20.36
2018-06-03T19:16:44.673Z,20.27
2018-06-03T19:19:13.945Z,20.27
2018-06-03T19:21:43.361Z,20.27
2018-06-03T19:24:12.774Z,20.26
2018-06-03T19:26:42.073Z,20.23
2018-06-03T19:29:11.447Z,20.17
2018-06-03T19:31:42.320Z,20.14
2018-06-03T19:34:11.738Z,20.15
2018-06-03T19:36:40.994Z,20.16
2018-06-03T19:39:10.520Z,20.08
2018-06-03T19:41:39.777Z,20.18
2018-06-03T19:44:09.214Z,20.19
2018-06-03T19:46:38.456Z,20.17
2018-06-03T19:49:07.739Z,20.15
2018-06-03T19:51:37.128Z,20.12
2018-06-03T19:54:06.533Z,20.06
2018-06-03T19:56:35.833Z,20.01
2018-06-03T19:59:05.209Z,20.03
2018-06-03T20:01:41.195Z,19.98
2018-06-03T20:04:10.507Z,19.91
2018-06-03T20:06:39.881Z,19.85
2018-06-03T20:09:10.074Z,19.77
2018-06-03T20:11:39.453Z,19.74
2018-06-03T20:14:08.903Z,19.72
2018-06-03T20:16:38.383Z,19.70
2018-06-03T20:19:07.643Z,19.66
2018-06-03T20:21:37.077Z,19.64
2018-06-03T20:24:07.767Z,19.59
2018-06-03T20:26:37.027Z,19.55
2018-06-03T20:29:06.330Z,19.48
2018-06-03T20:31:36.498Z,19.48
2018-06-03T20:34:05.849Z,19.42
2018-06-03T20:36:35.389Z,19.38
2018-06-03T20:39:07.746Z,19.30
2018-06-03T20:41:37.092Z,19.22
2018-06-03T20:44:06.521Z,19.09
2018-06-03T20:46:36.355Z,19.05
2018-06-03T20:49:05.965Z,18.98
2018-06-03T20:51:35.858Z,18.88
2018-06-03T20:54:06.338Z,18.84
2018-06-03T20:56:35.686Z,18.75
2018-06-03T20:59:05.417Z,18.67
2018-06-03T21:01:35.334Z,18.56
2018-06-03T21:04:04.882Z,18.53
2018-06-03T21:06:34.667Z,18.48
2018-06-03T21:09:04.826Z,18.44
2018-06-03T21:11:34.158Z,18.39
2018-06-03T21:14:03.683Z,18.36
2018-06-03T21:16:33.227Z,18.31
2018-06-03T21:19:02.724Z,18.26
2018-06-03T21:21:33.385Z,18.19
2018-06-03T21:24:03.199Z,18.16
2018-06-03T21:26:32.988Z,18.09
2018-06-03T21:29:02.311Z,18.03
2018-06-03T21:31:31.827Z,18.01
2018-06-03T21:34:01.459Z,17.97
2018-06-03T21:36:31.175Z,17.93
2018-06-03T21:39:00.742Z,17.90
2018-06-03T21:41:30.658Z,17.86
2018-06-03T21:44:00.438Z,17.81
2018-06-03T21:46:29.900Z,17.78
2018-06-03T21:48:59.305Z,17.78
2018-06-03T21:51:28.744Z,17.78
2018-06-03T21:53:58.617Z,17.78
2018-06-03T21:56:28.277Z,17.83
2018-06-03T21:58:58.385Z,17.87
2018-06-03T22:01:28.109Z,17.92
2018-06-03T22:03:57.712Z,17.93
2018-06-03T22:06:27.111Z,17.92
2018-06-03T22:08:56.706Z,17.91
2018-06-03T22:11:26.249Z,17.97
2018-06-03T22:13:56.381Z,17.99
2018-06-03T22:16:26.489Z,18.03
2018-06-03T22:18:56.282Z,18.05
2018-06-03T22:21:26.046Z,18.10
2018-06-03T22:23:56.107Z,18.13
2018-06-03T22:26:26.109Z,18.16
2018-06-03T22:28:55.702Z,18.18
2018-06-03T22:31:26.357Z,18.19
2018-06-03T22:33:55.965Z,18.28
2018-06-03T22:36:25.836Z,18.34
2018-06-03T22:38:55.950Z,18.39
2018-06-03T22:41:25.733Z,18.46
2018-06-03T22:43:55.420Z,18.50
2018-06-03T22:46:25.361Z,18.45
2018-06-03T22:48:54.966Z,18.53
2018-06-03T22:51:24.550Z,18.48
2018-06-03T22:53:55.207Z,18.58
2018-06-03T22:56:25.008Z,18.62
2018-06-03T22:58:55.130Z,18.65
2018-06-03T23:01:25.907Z,18.64
2018-06-03T23:03:55.480Z,18.58
2018-06-03T23:06:25.206Z,18.55
2018-06-03T23:08:54.933Z,18.58
2018-06-03T23:11:24.847Z,18.60
2018-06-03T23:13:55.325Z,18.53
2018-06-03T23:16:25.480Z,18.57
2018-06-03T23:18:55.098Z,18.57
2018-06-03T23:21:25.133Z,18.56
2018-06-03T23:23:55.299Z,18.51
2018-06-03T23:26:25.068Z,18.51
2018-06-03T23:28:54.617Z,18.49
2018-06-03T23:31:24.272Z,18.46
2018-06-03T23:33:53.859Z,18.45
2018-06-03T23:36:23.429Z,18.48
2018-06-03T23:38:53.002Z,18.45
2018-06-03T23:41:22.497Z,18.40
2018-06-03T23:43:52.474Z,18.38
2018-06-03T23:46:22.081Z,18.36
2018-06-03T23:48:51.824Z,18.36
2018-06-03T23:51:21.624Z,18.39
2018-06-03T23:53:51.405Z,18.37
2018-06-03T23:56:20.910Z,18.35
2018-06-03T23:58:50.875Z,18.33
